createdAt,value
2019-03-04T00:01:23.711Z,101021.05
2019-03-04T00:04:13.690Z,101019.00
2019-03-04T00:07:04.313Z,101021.41
2019-03-04T00:09:54.771Z,101019.66
2019-03-04T00:12:45.313Z,101014.59
2019-03-04T00:15:36.047Z,101014.34
2019-03-04T00:18:26.539Z,101013.90
2019-03-04T00:21:16.736Z,101012.80
2019-03-04T00:24:07.063Z,100991.92
2019-03-04T00:26:57.465Z,101012.57
2019-03-04T00:29:47.848Z,101012.86
2019-03-04T00:32:38.270Z,101005.12
2019-03-04T00:35:28.969Z,101011.09
2019-03-04T00:38:19.065Z,101007.53
2019-03-04T00:41:09.788Z,101005.45
2019-03-04T00:44:01.043Z,101002.64
2019-03-04T00:46:51.569Z,101007.50
2019-03-04T00:49:41.821Z,101003.19
2019-03-04T00:52:32.567Z,101005.12
2019-03-04T00:55:22.580Z,101002.90
2019-03-04T00:58:13.383Z,101001.77
2019-03-04T01:01:03.701Z,100999.19
2019-03-04T01:03:54.015Z,100991.59
2019-03-04T01:06:44.423Z,100983.45
2019-03-04T01:09:34.707Z,100998.30
2019-03-04T01:12:25.106Z,100988.98
2019-03-04T01:15:19.848Z,101000.88
2019-03-04T01:18:12.236Z,100985.58
2019-03-04T01:21:02.411Z,100987.05
2019-03-04T01:23:53.775Z,100993.23
2019-03-04T01:26:44.214Z,100978.07
2019-03-04T01:29:34.799Z,100989.86
2019-03-04T01:32:25.365Z,100983.66
2019-03-04T01:35:15.487Z,100984.97
2019-03-04T01:38:05.817Z,100979.18
2019-03-04T01:40:56.133Z,100976.84
2019-03-04T01:43:46.494Z,100972.87
2019-03-04T01:46:36.590Z,100976.63
2019-03-04T01:49:26.903Z,100966.45
2019-03-04T01:52:17.486Z,100969.02
2019-03-04T01:55:08.826Z,100979.38
2019-03-04T01:57:59.614Z,100975.67
2019-03-04T02:00:50.307Z,100973.42
2019-03-04T02:03:40.679Z,100969.98
2019-03-04T02:06:31.031Z,100972.41
2019-03-04T02:09:21.382Z,100973.36
2019-03-04T02:12:11.459Z,100974.05
2019-03-04T02:15:01.741Z,100968.73
2019-03-04T02:17:53.274Z,100975.85
2019-03-04T02:20:44.673Z,100973.51
2019-03-04T02:23:35.065Z,100968.44
2019-03-04T02:26:28.016Z,100972.70
2019-03-04T02:29:18.447Z,100966.77
2019-03-04T02:32:08.855Z,100963.76
2019-03-04T02:34:59.083Z,100969.25
2019-03-04T02:37:50.089Z,100964.16
2019-03-04T02:40:40.476Z,100963.20
2019-03-04T02:43:30.755Z,100959.73
2019-03-04T02:46:21.159Z,100964.77
2019-03-04T02:49:11.433Z,100955.22
2019-03-04T02:52:01.741Z,100959.24
2019-03-04T02:54:52.113Z,100957.04
2019-03-04T02:57:42.411Z,100956.12
2019-03-04T03:00:32.636Z,100948.91
2019-03-04T03:03:23.158Z,100944.86
2019-03-04T03:06:13.576Z,100940.00
2019-03-04T03:09:06.171Z,100942.58
2019-03-04T03:11:58.003Z,100947.95
2019-03-04T03:14:50.737Z,100938.50
2019-03-04T03:17:40.888Z,100939.37
2019-03-04T03:20:31.520Z,100929.67
2019-03-04T03:23:21.927Z,100931.55
2019-03-04T03:26:12.106Z,100928.29
2019-03-04T03:29:05.650Z,100931.14
2019-03-04T03:31:56.154Z,100934.63
2019-03-04T03:34:46.165Z,100932.13
2019-03-04T03:37:36.540Z,100936.41
2019-03-04T03:40:26.918Z,100934.70
2019-03-04T03:43:17.272Z,100931.09
2019-03-04T03:46:07.674Z,100937.13
2019-03-04T03:48:57.996Z,100930.39
2019-03-04T03:51:48.417Z,100934.97
2019-03-04T03:54:38.653Z,100933.06
2019-03-04T03:57:30.128Z,100929.47
2019-03-04T04:00:20.745Z,100934.27
2019-03-04T04:03:11.196Z,100941.13
2019-03-04T04:06:01.484Z,100934.88
2019-03-04T04:08:51.842Z,100945.18
2019-03-04T04:11:42.176Z,100936.73
2019-03-04T04:14:32.485Z,100931.70
2019-03-04T04:17:22.850Z,100938.06
2019-03-04T04:20:13.587Z,100935.05
2019-03-04T04:23:06.016Z,100932.83
2019-03-04T04:25:56.463Z,100936.81
2019-03-04T04:28:47.006Z,100938.37
2019-03-04T04:31:37.434Z,100938.93
2019-03-04T04:34:28.251Z,100939.13
2019-03-04T04:37:18.699Z,100936.47
2019-03-04T04:40:09.057Z,100941.36
2019-03-04T04:42:59.281Z,100935.00
2019-03-04T04:45:49.785Z,100939.39
2019-03-04T04:48:42.616Z,100933.55
2019-03-04T04:51:32.872Z,100937.11
2019-03-04T04:54:23.474Z,100933.92
2019-03-04T04:57:13.957Z,100939.42
2019-03-04T05:00:04.260Z,100940.61
2019-03-04T05:02:55.950Z,100938.09
2019-03-04T05:05:45.978Z,100938.47
2019-03-04T05:08:36.309Z,100940.41
2019-03-04T05:11:26.838Z,100943.13
2019-03-04T05:14:17.127Z,100953.48
2019-03-04T05:17:07.422Z,100945.75
2019-03-04T05:19:57.918Z,100948.61
2019-03-04T05:22:48.258Z,100944.07
2019-03-04T05:25:38.499Z,100944.12
2019-03-04T05:28:29.037Z,100946.94
2019-03-04T05:31:19.142Z,100944.42
2019-03-04T05:34:09.505Z,100938.44
2019-03-04T05:36:59.995Z,100935.70
2019-03-04T05:39:50.427Z,100940.56
2019-03-04T05:42:40.766Z,100936.81
2019-03-04T05:45:31.203Z,100944.55
2019-03-04T05:48:22.272Z,100941.98
2019-03-04T05:51:12.511Z,100955.91
2019-03-04T05:54:02.938Z,100957.05
2019-03-04T05:56:53.248Z,100954.88
2019-03-04T05:59:43.811Z,100965.28
2019-03-04T06:02:34.202Z,100969.38
2019-03-04T06:05:26.526Z,100963.56
2019-03-04T06:08:16.857Z,100963.55
2019-03-04T06:11:07.001Z,100967.89
2019-03-04T06:13:57.339Z,100972.41
2019-03-04T06:16:47.759Z,100971.63
2019-03-04T06:19:38.141Z,100979.59
2019-03-04T06:22:28.621Z,100984.44
2019-03-04T06:25:24.177Z,100987.23
2019-03-04T06:28:14.715Z,100987.16
2019-03-04T06:31:05.068Z,100981.77
2019-03-04T06:33:56.084Z,100988.69
2019-03-04T06:36:46.930Z,100995.16
2019-03-04T06:39:37.961Z,100995.35
2019-03-04T06:42:28.892Z,100999.61
2019-03-04T06:45:19.832Z,101003.28
2019-03-04T06:48:10.693Z,101001.45
2019-03-04T06:51:02.061Z,101004.70
2019-03-04T06:54:32.305Z,101008.53
2019-03-04T06:57:28.657Z,101005.08
2019-03-04T07:01:02.880Z,101016.57
2019-03-04T07:04:20.861Z,101012.01
2019-03-04T07:07:11.699Z,101011.04
2019-03-04T07:10:02.666Z,101008.20
2019-03-04T07:12:54.464Z,101019.20
2019-03-04T07:15:45.129Z,101016.14
2019-03-04T07:18:36.181Z,101021.16
2019-03-04T07:21:27.583Z,101024.46
2019-03-04T07:24:18.671Z,101019.63
2019-03-04T07:27:09.674Z,101016.28
2019-03-04T07:30:00.649Z,101016.63
2019-03-04T07:32:52.005Z,101015.07
2019-03-04T07:35:43.116Z,101012.54
2019-03-04T07:38:50.125Z,101020.03
2019-03-04T07:41:42.533Z,101000.67
2019-03-04T07:44:32.702Z,101009.65
2019-03-04T07:47:23.742Z,101012.44
2019-03-04T07:50:14.460Z,101007.98
2019-03-04T07:53:06.804Z,101011.14
2019-03-04T07:55:57.766Z,101006.36
2019-03-04T07:58:48.785Z,101017.30
2019-03-04T08:01:39.217Z,101019.30
2019-03-04T08:04:29.406Z,101023.84
2019-03-04T08:07:41.751Z,101023.61
2019-03-04T08:11:13.265Z,101024.97
2019-03-04T08:14:04.222Z,101027.02
2019-03-04T08:16:54.602Z,101035.90
2019-03-04T08:19:46.367Z,101032.41
2019-03-04T08:22:36.393Z,101035.45
2019-03-04T08:25:27.032Z,101036.23
2019-03-04T08:28:17.452Z,101036.25
2019-03-04T08:31:07.815Z,101028.25
2019-03-04T08:33:58.070Z,101016.74
2019-03-04T08:36:51.185Z,101019.78
2019-03-04T08:39:41.153Z,101025.20
2019-03-04T08:42:31.619Z,101023.30
2019-03-04T08:45:21.925Z,101023.56
2019-03-04T08:48:12.414Z,101023.12
2019-03-04T08:51:02.756Z,101029.03
2019-03-04T08:53:53.571Z,101027.21
2019-03-04T08:56:46.613Z,101023.30
2019-03-04T08:59:36.777Z,101029.17
2019-03-04T09:02:27.059Z,101027.10
2019-03-04T09:05:17.249Z,101022.64
2019-03-04T09:08:07.726Z,101020.88
2019-03-04T09:10:57.862Z,101025.59
2019-03-04T09:13:48.064Z,101023.97
2019-03-04T09:16:38.571Z,101021.71
2019-03-04T09:19:28.850Z,101016.34
2019-03-04T09:22:19.262Z,101022.06
2019-03-04T09:25:13.324Z,101016.37
2019-03-04T09:28:04.862Z,101019.52
2019-03-04T09:30:55.075Z,101016.47
2019-03-04T09:33:45.317Z,101013.86
2019-03-04T09:36:36.452Z,101011.00
2019-03-04T09:39:27.258Z,100998.63
2019-03-04T09:42:24.888Z,101000.37
2019-03-04T09:45:18.012Z,100997.16
2019-03-04T09:48:08.085Z,101003.75
2019-03-04T09:50:58.391Z,101002.83
2019-03-04T09:53:48.457Z,100998.89
2019-03-04T09:56:38.776Z,100986.28
2019-03-04T09:59:29.066Z,100973.16
2019-03-04T10:02:27.524Z,100985.73
2019-03-04T10:05:53.383Z,100978.60
2019-03-04T10:08:54.554Z,100976.16
2019-03-04T10:12:12.038Z,100968.53
2019-03-04T10:15:50.049Z,100953.91
2019-03-04T10:19:27.603Z,100955.34
2019-03-04T10:22:49.606Z,100964.34
2019-03-04T10:26:30.014Z,100957.06
2019-03-04T10:29:57.142Z,100936.03
2019-03-04T10:33:27.661Z,100955.28
2019-03-04T10:36:27.639Z,100939.50
2019-03-04T10:40:06.240Z,100953.38
2019-03-04T10:43:45.777Z,100944.15
2019-03-04T10:47:07.242Z,100936.64
2019-03-04T10:49:57.620Z,100937.29
2019-03-04T10:52:47.941Z,100938.94
2019-03-04T10:55:41.938Z,100929.48
2019-03-04T10:58:29.793Z,100922.75
2019-03-04T11:01:29.939Z,100926.05
2019-03-04T11:04:11.991Z,100916.91
2019-03-04T11:07:02.443Z,100910.43
2019-03-04T11:09:52.560Z,100909.31
2019-03-04T11:12:44.113Z,100903.55
2019-03-04T11:15:34.380Z,100893.56
2019-03-04T11:18:24.724Z,100894.66
2019-03-04T11:21:15.090Z,100889.27
2019-03-04T11:24:06.907Z,100884.18
2019-03-04T11:26:57.791Z,100881.41
2019-03-04T11:29:48.500Z,100871.71
2019-03-04T11:32:41.263Z,100862.93
2019-03-04T11:35:31.817Z,100859.61
2019-03-04T11:38:42.466Z,100855.47
2019-03-04T11:41:32.958Z,100847.73
2019-03-04T11:44:23.454Z,100839.92
2019-03-04T11:47:14.011Z,100833.08
2019-03-04T11:50:04.682Z,100833.43
2019-03-04T11:52:55.473Z,100830.36
2019-03-04T11:55:45.808Z,100824.16
2019-03-04T11:58:36.168Z,100822.16
2019-03-04T12:01:35.962Z,100810.33
2019-03-04T12:04:26.983Z,100811.71
2019-03-04T12:07:17.519Z,100806.25
2019-03-04T12:10:11.019Z,100800.48
2019-03-04T12:13:01.616Z,100795.52
2019-03-04T12:15:51.718Z,100796.97
2019-03-04T12:18:42.137Z,100790.50
2019-03-04T12:21:33.553Z,100785.48
2019-03-04T12:24:23.536Z,100785.36
2019-03-04T12:27:13.744Z,100778.52
2019-03-04T12:30:04.458Z,100770.27
2019-03-04T12:32:54.714Z,100771.70
2019-03-04T12:35:44.765Z,100770.10
2019-03-04T12:38:36.772Z,100772.19
2019-03-04T12:41:27.202Z,100767.20
2019-03-04T12:44:17.544Z,100763.42
2019-03-04T12:47:07.928Z,100760.00
2019-03-04T12:49:58.512Z,100758.78
2019-03-04T12:52:48.799Z,100745.23
2019-03-04T12:55:39.224Z,100743.16
2019-03-04T12:58:29.549Z,100749.51
2019-03-04T13:01:19.678Z,100748.42
2019-03-04T13:04:09.938Z,100742.31
2019-03-04T13:07:00.138Z,100743.27
2019-03-04T13:09:50.289Z,100740.22
2019-03-04T13:12:40.571Z,100735.36
2019-03-04T13:15:31.165Z,100734.38
2019-03-04T13:18:23.989Z,100737.90
2019-03-04T13:21:14.847Z,100736.08
2019-03-04T13:24:05.423Z,100729.02
2019-03-04T13:26:55.767Z,100725.69
2019-03-04T13:29:47.631Z,100727.06
2019-03-04T13:32:37.598Z,100715.23
2019-03-04T13:35:28.120Z,100711.08
2019-03-04T13:38:18.442Z,100712.42
2019-03-04T13:41:08.759Z,100711.08
2019-03-04T13:44:01.322Z,100700.33
2019-03-04T13:46:51.989Z,100697.42
2019-03-04T13:49:42.304Z,100688.15
2019-03-04T13:52:32.616Z,100687.06
2019-03-04T13:55:23.093Z,100687.03
2019-03-04T13:58:15.956Z,100686.30
2019-03-04T14:01:07.095Z,100682.02
2019-03-04T14:03:57.385Z,100678.98
2019-03-04T14:06:47.356Z,100665.56
2019-03-04T14:09:38.135Z,100662.50
2019-03-04T14:12:28.060Z,100658.50
2019-03-04T14:15:21.272Z,100654.22
2019-03-04T14:18:11.396Z,100651.44
2019-03-04T14:21:03.843Z,100652.66
2019-03-04T14:23:54.161Z,100646.16
2019-03-04T14:26:44.285Z,100645.17
2019-03-04T14:29:34.559Z,100645.56
2019-03-04T14:32:25.078Z,100640.93
2019-03-04T14:35:15.362Z,100633.48
2019-03-04T14:38:06.210Z,100634.45
2019-03-04T14:40:56.591Z,100627.98
2019-03-04T14:43:47.118Z,100622.13
2019-03-04T14:46:37.307Z,100618.36
2019-03-04T14:49:27.410Z,100619.94
2019-03-04T14:52:17.582Z,100626.39
2019-03-04T14:55:10.069Z,100617.33
2019-03-04T14:58:01.886Z,100618.62
2019-03-04T15:00:52.003Z,100618.12
2019-03-04T15:03:42.220Z,100614.55
2019-03-04T15:06:32.559Z,100612.94
2019-03-04T15:09:22.886Z,100614.92
2019-03-04T15:12:14.305Z,100610.52
2019-03-04T15:15:04.357Z,100611.12
2019-03-04T15:17:55.753Z,100573.15
2019-03-04T15:20:46.101Z,100607.02
2019-03-04T15:23:36.468Z,100601.62
2019-03-04T15:26:26.536Z,100605.14
2019-03-04T15:29:16.843Z,100600.80
2019-03-04T15:32:07.216Z,100602.10
2019-03-04T15:34:58.628Z,100605.52
2019-03-04T15:37:48.948Z,100605.14
2019-03-04T15:40:39.496Z,100603.41
2019-03-04T15:43:29.841Z,100605.10
2019-03-04T15:46:20.368Z,100601.20
2019-03-04T15:49:10.518Z,100600.27
2019-03-04T15:52:01.188Z,100600.77
2019-03-04T15:54:52.409Z,100606.02
2019-03-04T15:57:42.705Z,100596.56
2019-03-04T16:00:33.067Z,100594.27
2019-03-04T16:03:23.249Z,100594.66
2019-03-04T16:06:13.565Z,100598.59
2019-03-04T16:09:04.716Z,100598.07
2019-03-04T16:11:55.779Z,100593.24
2019-03-04T16:14:45.925Z,100596.28
2019-03-04T16:17:36.023Z,100599.13
2019-03-04T16:20:27.030Z,100595.06
2019-03-04T16:23:17.288Z,100592.39
2019-03-04T16:26:13.628Z,100591.75
2019-03-04T16:29:03.988Z,100597.25
2019-03-04T16:31:54.817Z,100601.50
2019-03-04T16:34:45.308Z,100594.66
2019-03-04T16:37:35.835Z,100601.12
2019-03-04T16:40:26.269Z,100604.74
2019-03-04T16:43:16.515Z,100602.83
2019-03-04T16:46:06.815Z,100597.27
2019-03-04T16:48:57.026Z,100598.17
2019-03-04T16:51:47.320Z,100600.03
2019-03-04T16:54:37.603Z,100603.56
2019-03-04T16:57:27.860Z,100604.11
2019-03-04T17:00:19.321Z,100602.60
2019-03-04T17:03:09.414Z,100610.61
2019-03-04T17:06:00.075Z,100603.54
2019-03-04T17:08:50.291Z,100598.06
2019-03-04T17:11:40.726Z,100601.59
2019-03-04T17:14:31.104Z,100609.10
2019-03-04T17:17:21.243Z,100608.88
2019-03-04T17:20:12.302Z,100608.80
2019-03-04T17:23:02.755Z,100609.75
2019-03-04T17:25:52.990Z,100608.16
2019-03-04T17:28:43.359Z,100610.55
2019-03-04T17:31:33.580Z,100606.86
2019-03-04T17:34:24.346Z,100608.56
2019-03-04T17:37:14.762Z,100607.41
2019-03-04T17:40:05.760Z,100604.20
2019-03-04T17:42:55.864Z,100606.43
2019-03-04T17:45:46.338Z,100614.38
2019-03-04T17:48:36.561Z,100605.53
2019-03-04T17:51:26.855Z,100613.91
2019-03-04T17:54:17.189Z,100614.77
2019-03-04T17:57:07.695Z,100614.55
2019-03-04T17:59:58.069Z,100611.02
2019-03-04T18:02:49.072Z,100610.08
2019-03-04T18:05:39.387Z,100610.66
2019-03-04T18:08:29.835Z,100606.65
2019-03-04T18:11:20.264Z,100611.23
2019-03-04T18:14:10.838Z,100613.33
2019-03-04T18:17:01.115Z,100611.23
2019-03-04T18:19:51.546Z,100610.08
2019-03-04T18:22:42.765Z,100605.09
2019-03-04T18:25:37.587Z,100605.89
2019-03-04T18:29:01.131Z,100605.35
2019-03-04T18:32:05.165Z,100605.75
2019-03-04T18:35:27.833Z,100610.58
2019-03-04T18:38:38.756Z,100615.81
2019-03-04T18:41:47.833Z,100612.60
2019-03-04T18:44:45.266Z,100613.00
2019-03-04T18:47:55.118Z,100607.44
2019-03-04T18:50:45.734Z,100606.69
2019-03-04T18:53:36.904Z,100610.80
2019-03-04T18:56:29.782Z,100613.80
2019-03-04T18:59:20.136Z,100619.71
2019-03-04T19:02:10.229Z,100614.73
2019-03-04T19:05:00.810Z,100619.31
2019-03-04T19:07:51.332Z,100615.92
2019-03-04T19:10:41.442Z,100616.86
2019-03-04T19:13:31.492Z,100612.09
2019-03-04T19:16:21.792Z,100592.08
2019-03-04T19:19:12.183Z,100604.62
2019-03-04T19:22:02.480Z,100605.97
2019-03-04T19:24:55.926Z,100598.82
2019-03-04T19:27:46.339Z,100601.70
2019-03-04T19:30:37.401Z,100605.89
2019-03-04T19:33:27.639Z,100609.68
2019-03-04T19:36:18.020Z,100606.25
2019-03-04T19:39:09.794Z,100616.46
2019-03-04T19:42:00.667Z,100607.70
2019-03-04T19:44:51.145Z,100618.48
2019-03-04T19:47:41.831Z,100617.25
2019-03-04T19:50:32.371Z,100607.80
2019-03-04T19:53:22.507Z,100602.83
2019-03-04T19:56:12.943Z,100603.48
2019-03-04T19:59:03.391Z,100604.05
2019-03-04T20:01:53.982Z,100600.55
2019-03-04T20:04:44.384Z,100601.78
2019-03-04T20:07:34.801Z,100600.27
2019-03-04T20:10:25.267Z,100593.37
2019-03-04T20:13:15.716Z,100591.25
2019-03-04T20:16:07.221Z,100585.08
2019-03-04T20:18:57.603Z,100583.98
2019-03-04T20:21:48.597Z,100583.66
2019-03-04T20:24:38.920Z,100580.82
2019-03-04T20:27:30.508Z,100588.03
2019-03-04T20:30:21.847Z,100591.46
2019-03-04T20:33:12.053Z,100594.49
2019-03-04T20:36:02.379Z,100594.56
2019-03-04T20:38:52.698Z,100592.97
2019-03-04T20:41:43.027Z,100592.97
2019-03-04T20:44:33.321Z,100591.31
2019-03-04T20:47:23.318Z,100594.67
2019-03-04T20:50:16.726Z,100590.09
2019-03-04T20:53:09.108Z,100588.39
2019-03-04T20:56:00.686Z,100578.00
2019-03-04T20:58:51.233Z,100581.61
2019-03-04T21:01:41.767Z,100580.42
2019-03-04T21:04:32.177Z,100572.37
2019-03-04T21:07:22.816Z,100571.39
2019-03-04T21:10:13.457Z,100570.23
2019-03-04T21:13:11.018Z,100566.59
2019-03-04T21:16:01.106Z,100567.34
2019-03-04T21:18:52.127Z,100572.47
2019-03-04T21:21:42.615Z,100566.95
2019-03-04T21:24:32.996Z,100572.83
2019-03-04T21:27:23.318Z,100560.19
2019-03-04T21:31:03.900Z,100561.16
2019-03-04T21:34:16.073Z,100559.34
2019-03-04T21:37:34.073Z,100547.98
2019-03-04T21:40:29.360Z,100556.54
2019-03-04T21:43:34.124Z,100558.59
2019-03-04T21:47:20.573Z,100551.45
2019-03-04T21:50:12.607Z,100542.11
2019-03-04T21:53:10.720Z,100543.62
2019-03-04T21:56:40.567Z,100542.64
2019-03-04T21:59:30.652Z,100541.36
2019-03-04T22:02:31.628Z,100544.24
2019-03-04T22:05:21.724Z,100543.13
2019-03-04T22:08:12.529Z,100540.27
2019-03-04T22:11:02.761Z,100541.39
2019-03-04T22:13:52.846Z,100537.96
2019-03-04T22:16:43.223Z,100536.45
2019-03-04T22:19:33.679Z,100534.90
2019-03-04T22:22:23.926Z,100531.33
2019-03-04T22:25:14.586Z,100523.22
2019-03-04T22:28:05.150Z,100522.61
2019-03-04T22:30:55.530Z,100523.94
2019-03-04T22:33:45.633Z,100517.34
2019-03-04T22:36:36.191Z,100511.20
2019-03-04T22:39:26.448Z,100512.25
2019-03-04T22:42:19.484Z,100512.72
2019-03-04T22:45:12.811Z,100518.28
2019-03-04T22:48:03.109Z,100519.44
2019-03-04T22:50:54.562Z,100519.07
2019-03-04T22:53:45.189Z,100528.55
2019-03-04T22:56:35.275Z,100526.39
2019-03-04T22:59:25.772Z,100511.46
2019-03-04T23:02:17.389Z,100533.64
2019-03-04T23:05:15.920Z,100530.31
2019-03-04T23:08:05.974Z,100531.87
2019-03-04T23:10:56.339Z,100535.29
2019-03-04T23:13:54.653Z,100536.78
2019-03-04T23:16:45.004Z,100539.98
2019-03-04T23:19:35.259Z,100536.31
2019-03-04T23:22:25.615Z,100536.53
2019-03-04T23:25:15.681Z,100528.70
2019-03-04T23:28:05.921Z,100529.17
2019-03-04T23:30:59.823Z,100527.84
2019-03-04T23:33:49.025Z,100516.91
2019-03-04T23:36:40.291Z,100519.07
2019-03-04T23:39:31.723Z,100519.25
2019-03-04T23:42:22.217Z,100516.80
2019-03-04T23:45:12.920Z,100513.95
2019-03-04T23:48:03.410Z,100516.58
2019-03-04T23:50:54.177Z,100518.89
2019-03-04T23:53:44.716Z,100508.98
2019-03-04T23:56:34.874Z,100510.67
2019-03-04T23:59:25.207Z,100513.34
